LEMG/AGP METAR and TAF weather

Enter ICAO airport designator
Station Type Date Time Source
LEMG METAR 2020/09/23 19:30 UTC NOAA

LEMG 231930Z 29007KT CAVOK 28/15 Q1014 NOSIG


Station Type Date Time Source
LEMG Decoded METAR 2020/09/23 19:30 UTC NOAA

Malaga / Aeropuerto, Spain (LEMG) 36-40N 004-29W 7M
Sep 23, 2020 - 03:30 PM EDT / 2020.09.23 1930 UTC
Wind: from the WNW (290 degrees) at 8 MPH (7 KT):0
Visibility: greater than 7 mile(s):0
Temperature: 82 F (28 C)
Dew Point: 59 F (15 C)
Relative Humidity: 45%
Pressure (altimeter): 29.94 in. Hg (1014 hPa)
ob: LEMG 231930Z 29007KT CAVOK 28/15 Q1014 NOSIG
cycle: 19

Station Type Date Time Source
LEMG TAF 2020/09/23 18:27 UTC NOAA

TAF TAF LEMG 231700Z 2318/2418 28010KT 9999 FEW045 TX32/2414Z TN22/2406Z

Example: see airport list